createdAt,value
2023-02-28T00:00:58.893Z,41.25
2023-02-28T00:01:58.977Z,41.09
2023-02-28T00:02:58.918Z,58.01
2023-02-28T00:03:58.892Z,55.59
2023-02-28T00:04:59.030Z,60.59
2023-02-28T00:05:58.943Z,42.22
2023-02-28T00:06:58.909Z,42.54
2023-02-28T00:07:58.880Z,48.50
2023-02-28T00:08:58.893Z,45.12
2023-02-28T00:09:58.838Z,48.50
2023-02-28T00:10:58.873Z,50.76
2023-02-28T00:11:58.841Z,42.70
2023-02-28T00:12:58.888Z,57.69
2023-02-28T00:13:58.785Z,51.56
2023-02-28T00:14:58.778Z,43.51
2023-02-28T00:15:58.775Z,45.44
2023-02-28T00:16:58.861Z,40.93
2023-02-28T00:17:58.785Z,45.60
2023-02-28T00:18:58.839Z,53.01
2023-02-28T00:19:58.728Z,56.24
2023-02-28T00:20:58.712Z,43.34
2023-02-28T00:21:58.712Z,45.60
2023-02-28T00:22:58.791Z,42.38
2023-02-28T00:23:58.703Z,52.37
2023-02-28T00:24:58.684Z,54.95
2023-02-28T00:25:58.657Z,46.73
2023-02-28T00:26:58.654Z,68.96
2023-02-28T00:27:58.668Z,55.91
2023-02-28T00:28:58.640Z,41.25
2023-02-28T00:29:58.633Z,40.44
2023-02-28T00:30:58.700Z,43.18
2023-02-28T00:31:58.675Z,43.51
2023-02-28T00:32:58.581Z,53.01
2023-02-28T00:33:58.734Z,45.60
2023-02-28T00:34:58.605Z,40.44
2023-02-28T00:35:58.609Z,43.99
2023-02-28T00:36:58.576Z,47.37
2023-02-28T00:37:58.585Z,43.83
2023-02-28T00:38:58.597Z,53.66
2023-02-28T00:39:58.540Z,41.57
2023-02-28T00:40:58.520Z,41.09
2023-02-28T00:41:58.540Z,44.47
2023-02-28T00:42:58.520Z,42.86
2023-02-28T00:43:58.773Z,42.70
2023-02-28T00:44:58.536Z,43.18
2023-02-28T00:45:58.552Z,40.93
2023-02-28T00:46:58.477Z,43.18
2023-02-28T00:47:58.489Z,50.27
2023-02-28T00:48:58.490Z,46.41
2023-02-28T00:49:58.479Z,48.50
2023-02-28T00:50:58.442Z,44.63
2023-02-28T00:51:58.478Z,43.18
2023-02-28T00:52:58.404Z,45.44
2023-02-28T00:53:58.468Z,45.76
2023-02-28T00:54:59.008Z,51.08
2023-02-28T00:55:58.389Z,41.57
2023-02-28T00:56:58.352Z,42.70
2023-02-28T00:57:58.388Z,44.79
2023-02-28T00:58:58.345Z,42.86
2023-02-28T00:59:58.370Z,43.83
2023-02-28T01:00:58.347Z,43.18
2023-02-28T01:01:58.594Z,43.83
2023-02-28T01:02:58.393Z,43.34
2023-02-28T01:03:58.358Z,41.73
2023-02-28T01:04:58.368Z,42.22
2023-02-28T01:05:58.276Z,48.50
2023-02-28T01:06:58.300Z,40.77
2023-02-28T01:07:58.262Z,41.89
2023-02-28T01:08:58.239Z,44.79
2023-02-28T01:09:58.237Z,41.73
2023-02-28T01:10:58.249Z,42.06
2023-02-28T01:11:58.247Z,48.02
2023-02-28T01:12:58.254Z,44.31
2023-02-28T01:13:58.203Z,41.89
2023-02-28T01:14:58.217Z,41.57
2023-02-28T01:15:58.318Z,49.63
2023-02-28T01:16:58.223Z,43.83
2023-02-28T01:17:58.148Z,42.22
2023-02-28T01:18:58.184Z,48.18
2023-02-28T01:19:58.191Z,41.25
2023-02-28T01:20:58.142Z,43.34
2023-02-28T01:21:58.176Z,46.57
2023-02-28T01:22:58.127Z,42.86
2023-02-28T01:23:58.119Z,42.86
2023-02-28T01:24:58.097Z,43.51
2023-02-28T01:25:58.111Z,44.96
2023-02-28T01:26:58.085Z,53.82
2023-02-28T01:27:58.075Z,43.34
2023-02-28T01:28:58.096Z,41.73
2023-02-28T01:29:58.073Z,45.60
2023-02-28T01:30:58.192Z,44.79
2023-02-28T01:31:58.129Z,58.65
2023-02-28T01:32:58.006Z,41.73
2023-02-28T01:33:58.074Z,43.99
2023-02-28T01:34:58.064Z,51.24
2023-02-28T01:35:58.022Z,44.63
2023-02-28T01:36:58.027Z,47.37
2023-02-28T01:38:04.724Z,41.57
2023-02-28T01:38:57.985Z,42.54
2023-02-28T01:39:57.944Z,41.73
2023-02-28T01:40:57.937Z,64.29
2023-02-28T01:41:57.966Z,41.57
2023-02-28T01:42:57.914Z,42.38
2023-02-28T01:43:57.904Z,48.34
2023-02-28T01:44:57.928Z,43.83
2023-02-28T01:45:57.880Z,49.63
2023-02-28T01:46:57.910Z,43.02
2023-02-28T01:47:57.866Z,61.23
2023-02-28T01:48:57.856Z,51.88
2023-02-28T01:49:57.862Z,48.50
2023-02-28T01:50:57.970Z,42.70
2023-02-28T01:51:57.879Z,42.86
2023-02-28T01:52:57.835Z,42.38
2023-02-28T01:53:57.832Z,43.18
2023-02-28T01:54:57.791Z,46.25
2023-02-28T01:55:57.801Z,43.83
2023-02-28T01:56:57.874Z,47.53
2023-02-28T01:57:57.774Z,43.67
2023-02-28T01:58:57.814Z,43.51
2023-02-28T01:59:57.739Z,42.86
2023-02-28T02:00:57.729Z,44.31
2023-02-28T02:01:57.758Z,57.85
2023-02-28T02:02:57.784Z,47.21
2023-02-28T02:03:57.731Z,42.22
2023-02-28T02:04:58.203Z,42.70
2023-02-28T02:05:57.687Z,43.18
2023-02-28T02:06:57.664Z,42.86
2023-02-28T02:07:57.719Z,44.63
2023-02-28T02:08:57.664Z,45.44
2023-02-28T02:09:57.666Z,42.22
2023-02-28T02:10:57.625Z,49.31
2023-02-28T02:11:57.615Z,46.25
2023-02-28T02:12:57.689Z,46.08
2023-02-28T02:13:57.592Z,43.83
2023-02-28T02:14:57.639Z,43.34
2023-02-28T02:15:57.612Z,42.86
2023-02-28T02:16:57.567Z,47.21
2023-02-28T02:17:57.967Z,45.28
2023-02-28T02:18:57.566Z,45.60
2023-02-28T02:19:57.527Z,42.38
2023-02-28T02:20:57.535Z,46.73
2023-02-28T02:21:57.530Z,48.02
2023-02-28T02:22:57.542Z,44.79
2023-02-28T02:23:57.607Z,41.73
2023-02-28T02:24:57.521Z,53.82
2023-02-28T02:25:57.488Z,43.18
2023-02-28T02:26:57.460Z,60.26
2023-02-28T02:27:57.608Z,53.66
2023-02-28T02:28:57.489Z,42.38
2023-02-28T02:29:57.460Z,41.57
2023-02-28T02:30:57.448Z,42.86
2023-02-28T02:31:57.502Z,43.99
2023-02-28T02:32:57.413Z,43.83
2023-02-28T02:33:57.407Z,44.47
2023-02-28T02:34:57.438Z,48.50
2023-02-28T02:35:57.426Z,43.83
2023-02-28T02:36:57.428Z,43.51
2023-02-28T02:37:57.388Z,51.56
2023-02-28T02:38:57.347Z,42.22
2023-02-28T02:39:57.381Z,42.06
2023-02-28T02:40:57.341Z,44.63
2023-02-28T02:41:57.360Z,43.99
2023-02-28T02:42:57.368Z,45.12
2023-02-28T02:43:57.373Z,49.31
2023-02-28T02:44:57.323Z,44.63
2023-02-28T02:45:57.302Z,43.83
2023-02-28T02:46:57.310Z,44.31
2023-02-28T02:47:57.328Z,45.44
2023-02-28T02:48:57.294Z,44.96
2023-02-28T02:49:57.305Z,49.79
2023-02-28T02:50:57.266Z,46.41
2023-02-28T02:51:57.271Z,54.30
2023-02-28T02:52:57.257Z,43.67
2023-02-28T02:53:57.223Z,45.28
2023-02-28T02:54:57.627Z,46.08
2023-02-28T02:55:57.246Z,43.51
2023-02-28T02:56:57.261Z,43.51
2023-02-28T02:57:57.256Z,43.83
2023-02-28T02:58:57.249Z,42.70
2023-02-28T02:59:57.182Z,44.63
2023-02-28T03:00:57.251Z,44.47
2023-02-28T03:01:57.145Z,44.15
2023-02-28T03:02:57.154Z,46.73
2023-02-28T03:03:57.239Z,46.89
2023-02-28T03:04:57.234Z,46.41
2023-02-28T03:05:57.171Z,45.12
2023-02-28T03:06:57.098Z,44.79
2023-02-28T03:07:57.104Z,52.37
2023-02-28T03:08:57.144Z,51.56
2023-02-28T03:09:57.115Z,62.36
2023-02-28T03:10:57.187Z,45.92
2023-02-28T03:11:57.062Z,49.63
2023-02-28T03:12:57.083Z,47.86
2023-02-28T03:13:57.088Z,47.37
2023-02-28T03:14:57.051Z,47.70
2023-02-28T03:15:57.162Z,44.15
2023-02-28T03:16:57.003Z,53.50
2023-02-28T03:17:56.993Z,53.33
2023-02-28T03:18:57.264Z,51.40
2023-02-28T03:19:57.370Z,45.12
2023-02-28T03:20:57.004Z,48.66
2023-02-28T03:21:57.042Z,45.76
2023-02-28T03:22:57.062Z,47.21
2023-02-28T03:23:56.963Z,55.91
2023-02-28T03:24:57.270Z,53.98
2023-02-28T03:25:57.255Z,46.25
2023-02-28T03:26:57.094Z,51.72
2023-02-28T03:27:57.072Z,45.28
2023-02-28T03:28:57.138Z,66.87
2023-02-28T03:29:56.906Z,48.34
2023-02-28T03:30:56.880Z,49.79
2023-02-28T03:31:56.982Z,47.37
2023-02-28T03:32:57.230Z,67.19
2023-02-28T03:33:56.909Z,44.96
2023-02-28T03:34:56.933Z,49.95
2023-02-28T03:35:57.008Z,46.41
2023-02-28T03:36:56.874Z,45.76
2023-02-28T03:37:57.140Z,56.24
2023-02-28T03:38:57.038Z,46.08
2023-02-28T03:39:56.988Z,51.08
2023-02-28T03:40:56.880Z,48.98
2023-02-28T03:41:57.696Z,52.53
2023-02-28T03:42:56.904Z,51.08
2023-02-28T03:43:57.670Z,43.51
2023-02-28T03:44:56.938Z,49.47
2023-02-28T03:45:56.940Z,45.12
2023-02-28T03:46:56.813Z,42.54
2023-02-28T03:47:56.914Z,44.79
2023-02-28T03:48:56.947Z,46.41
2023-02-28T03:49:56.812Z,47.86
2023-02-28T03:50:56.701Z,46.25
2023-02-28T03:51:56.787Z,67.19
2023-02-28T03:52:56.712Z,47.86
2023-02-28T03:53:56.712Z,49.95
2023-02-28T03:54:56.696Z,55.75
2023-02-28T03:55:56.754Z,47.05
2023-02-28T03:56:56.651Z,48.82
2023-02-28T03:57:56.652Z,45.60
2023-02-28T03:58:56.681Z,50.92
2023-02-28T03:59:56.653Z,54.30
2023-02-28T04:00:56.716Z,49.47
2023-02-28T04:01:56.677Z,54.79
2023-02-28T04:02:56.608Z,59.46
2023-02-28T04:03:56.642Z,49.31
2023-02-28T04:04:56.593Z,57.04
2023-02-28T04:05:56.592Z,56.40
2023-02-28T04:06:56.552Z,61.07
2023-02-28T04:07:56.705Z,67.19
2023-02-28T04:08:56.650Z,50.11
2023-02-28T04:09:56.525Z,58.81
2023-02-28T04:10:56.573Z,52.37
2023-02-28T04:11:56.480Z,53.98
2023-02-28T04:12:56.477Z,48.34
2023-02-28T04:13:56.518Z,50.92
2023-02-28T04:14:56.547Z,49.95
2023-02-28T04:15:56.519Z,48.34
2023-02-28T04:16:56.454Z,47.53
2023-02-28T04:17:56.468Z,53.01
2023-02-28T04:18:56.526Z,55.27
2023-02-28T04:19:56.399Z,56.88
2023-02-28T04:20:57.388Z,53.17
2023-02-28T04:21:56.461Z,54.30
2023-02-28T04:22:56.394Z,50.60
2023-02-28T04:23:56.368Z,60.91
2023-02-28T04:24:56.358Z,55.11
2023-02-28T04:25:56.341Z,60.10
2023-02-28T04:26:56.395Z,53.17
2023-02-28T04:27:56.379Z,53.66
2023-02-28T04:28:56.337Z,52.21
2023-02-28T04:29:56.287Z,46.89
2023-02-28T04:30:56.352Z,56.07
2023-02-28T04:31:56.446Z,54.95
2023-02-28T04:32:56.276Z,67.68
2023-02-28T04:33:56.271Z,59.30
2023-02-28T04:34:56.294Z,54.79
2023-02-28T04:35:56.282Z,53.17
2023-02-28T04:37:11.824Z,51.88
2023-02-28T04:37:56.252Z,61.55
2023-02-28T04:38:56.252Z,72.19
2023-02-28T04:39:56.210Z,55.11
2023-02-28T04:40:56.260Z,64.61
2023-02-28T04:41:56.217Z,50.76
2023-02-28T04:42:56.202Z,57.20
2023-02-28T04:43:56.161Z,59.46
2023-02-28T04:44:56.157Z,62.84
2023-02-28T04:45:56.211Z,56.07
2023-02-28T04:46:56.154Z,65.42
2023-02-28T04:47:56.171Z,51.56
2023-02-28T04:48:56.123Z,55.11
2023-02-28T04:49:56.125Z,58.17
2023-02-28T04:50:56.042Z,62.52
2023-02-28T04:51:56.115Z,56.40
2023-02-28T04:52:56.076Z,58.33
2023-02-28T04:53:56.092Z,61.23
2023-02-28T04:54:56.094Z,57.36
2023-02-28T04:55:56.063Z,55.91
2023-02-28T04:56:56.114Z,60.10
2023-02-28T04:57:56.024Z,60.10
2023-02-28T04:58:56.076Z,63.33
2023-02-28T04:59:56.038Z,61.87
2023-02-28T05:00:56.013Z,58.65
2023-02-28T05:01:56.092Z,56.40
2023-02-28T05:02:56.046Z,52.69
2023-02-28T05:03:55.969Z,67.03
2023-02-28T05:04:56.040Z,61.39
2023-02-28T05:05:56.067Z,54.79
2023-02-28T05:06:55.999Z,56.40
2023-02-28T05:07:55.980Z,58.65
2023-02-28T05:08:55.986Z,67.84
2023-02-28T05:09:56.129Z,53.82
2023-02-28T05:10:55.967Z,58.01
2023-02-28T05:11:55.910Z,63.00
2023-02-28T05:12:55.985Z,53.66
2023-02-28T05:13:55.949Z,56.07
2023-02-28T05:14:55.901Z,53.98
2023-02-28T05:15:55.956Z,59.46
2023-02-28T05:16:56.021Z,57.69
2023-02-28T05:17:55.856Z,65.58
2023-02-28T05:18:55.904Z,61.39
2023-02-28T05:20:01.095Z,55.91
2023-02-28T05:20:55.931Z,69.93
2023-02-28T05:21:55.805Z,59.94
2023-02-28T05:22:55.960Z,67.68
2023-02-28T05:23:55.829Z,54.95
2023-02-28T05:24:55.859Z,58.01
2023-02-28T05:25:55.758Z,63.97
2023-02-28T05:26:55.808Z,62.84
2023-02-28T05:27:55.769Z,58.17
2023-02-28T05:28:56.054Z,56.88
2023-02-28T05:29:55.773Z,57.04
2023-02-28T05:30:55.660Z,58.81
2023-02-28T05:31:55.845Z,69.93
2023-02-28T05:32:55.752Z,68.32
2023-02-28T05:33:55.702Z,66.23
2023-02-28T05:34:55.714Z,63.16
2023-02-28T05:35:55.715Z,63.00
2023-02-28T05:36:55.670Z,58.81
2023-02-28T05:37:56.425Z,63.97
2023-02-28T05:38:55.752Z,59.30
2023-02-28T05:39:55.630Z,62.36
2023-02-28T05:40:55.630Z,52.85
2023-02-28T05:41:55.596Z,66.39
2023-02-28T05:42:55.600Z,61.23
2023-02-28T05:43:55.609Z,54.95
2023-02-28T05:44:55.857Z,63.00
2023-02-28T05:45:55.569Z,54.30
2023-02-28T05:46:55.536Z,64.78
2023-02-28T05:47:55.552Z,62.52
2023-02-28T05:48:55.583Z,60.26
2023-02-28T05:49:55.467Z,59.62
2023-02-28T05:50:55.761Z,65.26
2023-02-28T05:51:55.458Z,62.84
2023-02-28T05:52:56.329Z,69.93
2023-02-28T05:53:55.410Z,59.94
2023-02-28T05:54:55.985Z,64.13
2023-02-28T05:55:55.403Z,62.84
2023-02-28T05:56:55.429Z,67.51
2023-02-28T05:57:55.404Z,64.45
2023-02-28T05:58:55.373Z,55.91
2023-02-28T05:59:55.681Z,71.54
2023-02-28T06:00:55.379Z,60.26
2023-02-28T06:01:55.395Z,69.29
2023-02-28T06:02:55.343Z,64.78
2023-02-28T06:03:55.340Z,59.46
2023-02-28T06:04:55.355Z,60.10
2023-02-28T06:05:55.332Z,60.91
2023-02-28T06:06:55.330Z,72.03
2023-02-28T06:07:55.323Z,60.75
2023-02-28T06:08:55.381Z,66.55
2023-02-28T06:09:55.265Z,59.94
2023-02-28T06:10:55.317Z,66.71
2023-02-28T06:11:55.320Z,62.36
2023-02-28T06:12:55.943Z,65.90
2023-02-28T06:13:55.260Z,55.75
2023-02-28T06:14:55.231Z,58.01
2023-02-28T06:15:55.217Z,64.45
2023-02-28T06:16:56.750Z,60.10
2023-02-28T06:17:55.315Z,70.25
2023-02-28T06:18:55.205Z,63.00
2023-02-28T06:19:55.396Z,67.03
2023-02-28T06:20:55.173Z,65.26
2023-02-28T06:21:55.206Z,66.71
2023-02-28T06:22:55.162Z,65.10
2023-02-28T06:23:55.150Z,66.55
2023-02-28T06:24:55.310Z,62.52
2023-02-28T06:25:55.135Z,63.16
2023-02-28T06:26:55.124Z,62.36
2023-02-28T06:27:55.136Z,64.13
2023-02-28T06:28:55.219Z,70.42
2023-02-28T06:29:55.115Z,72.03
2023-02-28T06:30:55.217Z,56.07
2023-02-28T06:31:55.139Z,62.52
2023-02-28T06:32:55.074Z,85.40
2023-02-28T06:33:55.134Z,87.66
2023-02-28T06:34:55.111Z,69.61
2023-02-28T06:35:55.069Z,69.93
2023-02-28T06:36:55.070Z,76.54
2023-02-28T06:37:55.033Z,71.38
2023-02-28T06:38:55.019Z,67.51
2023-02-28T06:39:54.991Z,64.94
2023-02-28T06:40:55.014Z,65.10
2023-02-28T06:41:56.441Z,63.16
2023-02-28T06:42:55.004Z,63.97
2023-02-28T06:43:54.986Z,61.23
2023-02-28T06:44:55.020Z,60.91
2023-02-28T06:45:54.966Z,65.58
2023-02-28T06:46:54.924Z,69.61
2023-02-28T06:47:54.960Z,69.29
2023-02-28T06:48:54.937Z,75.73
2023-02-28T06:49:54.932Z,70.74
2023-02-28T06:50:54.911Z,66.39
2023-02-28T06:51:54.878Z,63.81
2023-02-28T06:52:55.112Z,71.54
2023-02-28T06:53:54.877Z,63.49
2023-02-28T06:54:55.018Z,68.64
2023-02-28T06:55:54.835Z,59.94
2023-02-28T06:56:54.874Z,63.65
2023-02-28T06:57:54.887Z,67.51
2023-02-28T06:58:54.810Z,73.48
2023-02-28T06:59:54.819Z,68.16
2023-02-28T07:00:54.879Z,59.30
2023-02-28T07:01:54.861Z,66.39
2023-02-28T07:02:54.822Z,70.25
2023-02-28T07:03:54.847Z,63.16
2023-02-28T07:04:54.884Z,66.23
2023-02-28T07:05:54.926Z,61.87
2023-02-28T07:06:54.731Z,63.33
2023-02-28T07:07:54.720Z,68.16
2023-02-28T07:08:55.464Z,65.74
2023-02-28T07:09:54.722Z,64.29
2023-02-28T07:10:54.721Z,54.46
2023-02-28T07:11:54.701Z,72.99
2023-02-28T07:12:54.739Z,65.58
2023-02-28T07:13:54.670Z,60.59
2023-02-28T07:14:54.696Z,63.00
2023-02-28T07:15:54.686Z,58.01
2023-02-28T07:16:54.666Z,63.97
2023-02-28T07:17:54.629Z,65.10
2023-02-28T07:18:54.646Z,58.49
2023-02-28T07:19:54.611Z,65.10
2023-02-28T07:20:54.672Z,68.80
2023-02-28T07:21:54.597Z,64.61
2023-02-28T07:22:54.558Z,65.42
2023-02-28T07:23:54.842Z,70.09
2023-02-28T07:24:54.597Z,63.16
2023-02-28T07:25:54.564Z,69.45
2023-02-28T07:26:54.562Z,63.16
2023-02-28T07:27:54.594Z,64.45
2023-02-28T07:28:54.511Z,62.36
2023-02-28T07:29:54.572Z,68.48
2023-02-28T07:30:54.550Z,66.23
2023-02-28T07:31:54.577Z,66.55
2023-02-28T07:32:54.476Z,63.00
2023-02-28T07:33:54.614Z,65.90
2023-02-28T07:34:54.527Z,62.52
2023-02-28T07:35:54.569Z,63.49
2023-02-28T07:36:54.514Z,75.57
2023-02-28T07:37:54.545Z,64.29
2023-02-28T07:38:54.441Z,67.03
2023-02-28T07:39:54.413Z,67.35
2023-02-28T07:40:54.400Z,69.77
2023-02-28T07:41:55.000Z,68.16
2023-02-28T07:42:54.372Z,60.75
2023-02-28T07:43:54.473Z,65.58
2023-02-28T07:44:54.614Z,64.94
2023-02-28T07:45:54.361Z,65.26
2023-02-28T07:46:54.525Z,65.10
2023-02-28T07:47:54.376Z,67.51
2023-02-28T07:48:54.348Z,63.81
2023-02-28T07:49:54.515Z,66.71
2023-02-28T07:50:54.397Z,63.65
2023-02-28T07:51:54.340Z,62.84
2023-02-28T07:52:54.281Z,70.09
2023-02-28T07:53:54.445Z,59.94
2023-02-28T07:54:54.285Z,69.61
2023-02-28T07:55:56.635Z,60.42
2023-02-28T07:56:54.284Z,68.48
2023-02-28T07:57:54.254Z,64.94
2023-02-28T07:58:54.288Z,60.75
2023-02-28T07:59:54.362Z,72.51
2023-02-28T08:00:54.302Z,62.36
2023-02-28T08:01:54.311Z,64.94
2023-02-28T08:02:54.198Z,71.22
2023-02-28T08:03:54.226Z,71.70
2023-02-28T08:04:54.224Z,62.84
2023-02-28T08:05:54.177Z,56.24
2023-02-28T08:06:54.227Z,64.78
2023-02-28T08:07:54.252Z,67.19
2023-02-28T08:08:54.588Z,65.10
2023-02-28T08:09:54.389Z,63.97
2023-02-28T08:10:55.813Z,56.72
2023-02-28T08:11:54.481Z,65.90
2023-02-28T08:12:54.093Z,61.87
2023-02-28T08:13:54.205Z,65.26
2023-02-28T08:14:54.117Z,73.64
2023-02-28T08:15:54.484Z,62.20
2023-02-28T08:16:54.091Z,63.97
2023-02-28T08:17:54.059Z,63.49
2023-02-28T08:18:54.173Z,58.33
2023-02-28T08:19:54.031Z,62.84
2023-02-28T08:20:54.064Z,63.49
2023-02-28T08:21:54.070Z,68.80
2023-02-28T08:22:54.010Z,64.78
2023-02-28T08:23:54.776Z,69.93
2023-02-28T08:24:54.059Z,60.26
2023-02-28T08:25:54.770Z,57.36
2023-02-28T08:26:54.067Z,62.20
2023-02-28T08:27:53.941Z,61.71
2023-02-28T08:28:56.122Z,70.09
2023-02-28T08:29:54.042Z,59.30
2023-02-28T08:30:54.089Z,63.33
2023-02-28T08:31:54.270Z,61.71
2023-02-28T08:32:53.999Z,67.19
2023-02-28T08:33:54.121Z,69.93
2023-02-28T08:34:54.026Z,61.55
2023-02-28T08:35:54.031Z,61.87
2023-02-28T08:36:54.006Z,61.55
2023-02-28T08:37:53.882Z,67.84
2023-02-28T08:38:54.212Z,65.10
2023-02-28T08:39:56.232Z,66.39
2023-02-28T08:40:53.949Z,62.52
2023-02-28T08:42:06.695Z,68.32
2023-02-28T08:42:53.801Z,65.26
2023-02-28T08:43:53.868Z,62.52
2023-02-28T08:44:54.040Z,65.10
2023-02-28T08:45:53.895Z,64.29
2023-02-28T08:46:53.787Z,63.97
2023-02-28T08:47:53.910Z,70.74
2023-02-28T08:48:53.924Z,60.91
2023-02-28T08:49:53.760Z,73.48
2023-02-28T08:51:06.337Z,68.64
2023-02-28T08:51:53.773Z,71.70
2023-02-28T08:52:53.741Z,60.59
2023-02-28T08:53:53.741Z,68.16
2023-02-28T08:54:53.697Z,68.16
2023-02-28T08:55:53.759Z,62.68
2023-02-28T08:56:53.645Z,59.30
2023-02-28T08:57:53.830Z,58.65
2023-02-28T08:58:54.456Z,61.87
2023-02-28T08:59:53.679Z,56.88
2023-02-28T09:00:53.618Z,59.78
2023-02-28T09:01:53.616Z,63.49
2023-02-28T09:02:53.588Z,73.32
2023-02-28T09:03:53.683Z,68.32
2023-02-28T09:04:53.614Z,71.87
2023-02-28T09:05:53.565Z,59.78
2023-02-28T09:06:53.528Z,66.23
2023-02-28T09:07:53.646Z,60.59
2023-02-28T09:08:53.882Z,60.42
2023-02-28T09:09:53.578Z,60.91
2023-02-28T09:10:53.485Z,61.23
2023-02-28T09:11:53.494Z,56.56
2023-02-28T09:12:53.495Z,61.87
2023-02-28T09:13:53.594Z,60.75
2023-02-28T09:14:53.496Z,62.04
2023-02-28T09:15:53.463Z,55.27
2023-02-28T09:16:53.588Z,62.68
2023-02-28T09:17:53.483Z,59.30
2023-02-28T09:18:53.515Z,64.61
2023-02-28T09:19:53.463Z,62.04
2023-02-28T09:20:53.397Z,57.85
2023-02-28T09:21:53.471Z,64.78
2023-02-28T09:22:53.433Z,59.94
2023-02-28T09:23:53.387Z,65.42
2023-02-28T09:24:53.379Z,67.03
2023-02-28T09:25:53.362Z,61.71
2023-02-28T09:27:03.627Z,61.71
2023-02-28T09:27:53.354Z,65.90
2023-02-28T09:28:53.403Z,61.23
2023-02-28T09:29:53.508Z,63.16
2023-02-28T09:30:53.336Z,58.33
2023-02-28T09:31:53.396Z,86.21
2023-02-28T09:32:53.293Z,58.65
2023-02-28T09:33:53.543Z,63.00
2023-02-28T09:34:53.362Z,62.20
2023-02-28T09:35:53.276Z,58.17
2023-02-28T09:36:53.725Z,56.40
2023-02-28T09:37:53.268Z,69.45
2023-02-28T09:38:53.259Z,69.61
2023-02-28T09:39:53.237Z,63.81
2023-02-28T09:40:53.330Z,82.82
2023-02-28T09:41:53.237Z,68.96
2023-02-28T09:42:53.277Z,57.69
2023-02-28T09:43:53.182Z,60.59
2023-02-28T09:44:53.210Z,63.33
2023-02-28T09:45:53.395Z,69.77
2023-02-28T09:46:53.207Z,69.29
2023-02-28T09:47:53.300Z,68.32
2023-02-28T09:48:53.235Z,66.87
2023-02-28T09:49:53.211Z,64.13
2023-02-28T09:50:53.186Z,68.80
2023-02-28T09:51:53.210Z,64.45
2023-02-28T09:52:53.139Z,60.59
2023-02-28T09:53:56.635Z,60.59
2023-02-28T09:54:53.111Z,57.04
2023-02-28T09:55:53.063Z,58.97
2023-02-28T09:56:53.051Z,67.84
2023-02-28T09:57:53.052Z,74.12
2023-02-28T09:58:53.772Z,71.87
2023-02-28T09:59:53.152Z,62.52
2023-02-28T10:00:53.002Z,61.23
2023-02-28T10:01:53.082Z,62.84
2023-02-28T10:02:53.005Z,62.20
2023-02-28T10:03:53.142Z,64.29
2023-02-28T10:04:53.829Z,63.33
2023-02-28T10:05:53.336Z,65.90
2023-02-28T10:06:53.037Z,63.16
2023-02-28T10:07:53.450Z,63.00
2023-02-28T10:08:52.946Z,64.94
2023-02-28T10:09:52.980Z,69.45
2023-02-28T10:10:53.071Z,61.07
2023-02-28T10:11:54.402Z,66.71
2023-02-28T10:12:52.886Z,59.30
2023-02-28T10:13:52.932Z,61.39
2023-02-28T10:14:52.940Z,61.87
2023-02-28T10:15:52.943Z,62.04
2023-02-28T10:16:53.091Z,67.84
2023-02-28T10:17:55.579Z,66.23
2023-02-28T10:18:52.928Z,70.42
2023-02-28T10:19:52.832Z,63.65
2023-02-28T10:20:52.835Z,68.80
2023-02-28T10:21:53.034Z,68.32
2023-02-28T10:22:52.789Z,72.99
2023-02-28T10:23:52.821Z,78.31
2023-02-28T10:24:52.975Z,65.26
2023-02-28T10:25:52.799Z,66.87
2023-02-28T10:26:52.821Z,64.29
2023-02-28T10:27:52.775Z,69.13
2023-02-28T10:28:52.769Z,71.70
2023-02-28T10:29:52.839Z,68.96
2023-02-28T10:30:52.768Z,70.25
2023-02-28T10:31:52.835Z,68.80
2023-02-28T10:32:52.761Z,64.13
2023-02-28T10:33:52.729Z,65.74
2023-02-28T10:34:52.683Z,70.90
2023-02-28T10:35:52.726Z,71.87
2023-02-28T10:36:52.728Z,73.80
2023-02-28T10:37:52.885Z,60.26
2023-02-28T10:38:52.661Z,80.57
2023-02-28T10:39:52.617Z,62.84
2023-02-28T10:40:52.741Z,61.39
2023-02-28T10:41:53.867Z,61.71
2023-02-28T10:42:52.603Z,68.32
2023-02-28T10:43:52.592Z,69.61
2023-02-28T10:44:52.861Z,68.48
2023-02-28T10:45:52.603Z,68.16
2023-02-28T10:46:52.648Z,66.39
2023-02-28T10:47:53.985Z,78.47
2023-02-28T10:48:52.570Z,67.03
2023-02-28T10:49:52.646Z,71.54
2023-02-28T10:50:52.570Z,67.19
2023-02-28T10:51:53.398Z,63.00
2023-02-28T10:52:52.526Z,69.29
2023-02-28T10:54:00.987Z,68.64
2023-02-28T10:54:52.504Z,64.78
2023-02-28T10:55:52.513Z,85.40
2023-02-28T10:56:52.491Z,72.99
2023-02-28T10:57:52.538Z,85.56
2023-02-28T10:58:52.544Z,73.48
2023-02-28T10:59:52.515Z,65.10
2023-02-28T11:00:52.497Z,72.99
2023-02-28T11:01:52.450Z,66.39
2023-02-28T11:02:52.435Z,75.09
2023-02-28T11:03:52.509Z,69.77
2023-02-28T11:04:52.481Z,67.84
2023-02-28T11:05:52.474Z,70.90
2023-02-28T11:06:52.410Z,67.03
2023-02-28T11:07:53.326Z,67.03
2023-02-28T11:08:52.355Z,65.90
2023-02-28T11:09:52.400Z,70.58
2023-02-28T11:10:52.356Z,65.42
2023-02-28T11:11:52.397Z,72.51
2023-02-28T11:12:53.649Z,69.77
2023-02-28T11:13:52.605Z,66.55
2023-02-28T11:14:52.556Z,79.60
2023-02-28T11:15:52.368Z,74.12
2023-02-28T11:16:52.453Z,72.99
2023-02-28T11:17:52.685Z,66.39
2023-02-28T11:18:52.554Z,88.14
2023-02-28T11:19:52.397Z,66.23
2023-02-28T11:20:52.306Z,66.23
2023-02-28T11:21:52.267Z,65.42
2023-02-28T11:22:52.274Z,70.90
2023-02-28T11:23:52.371Z,72.03
2023-02-28T11:24:52.253Z,65.26
2023-02-28T11:25:53.104Z,83.95
2023-02-28T11:26:52.180Z,66.23
2023-02-28T11:27:52.385Z,68.64
2023-02-28T11:28:52.146Z,66.55
2023-02-28T11:29:52.164Z,65.58
2023-02-28T11:30:52.157Z,66.23
2023-02-28T11:31:53.129Z,73.32
2023-02-28T11:32:52.282Z,66.06
2023-02-28T11:33:52.300Z,66.39
2023-02-28T11:34:52.154Z,67.84
2023-02-28T11:35:52.225Z,62.68
2023-02-28T11:36:52.116Z,68.16
2023-02-28T11:37:52.215Z,65.26
2023-02-28T11:38:52.343Z,69.29
2023-02-28T11:39:52.300Z,64.29
2023-02-28T11:40:52.954Z,61.23
2023-02-28T11:41:52.080Z,64.13
2023-02-28T11:42:52.011Z,59.46
2023-02-28T11:43:52.121Z,58.33
2023-02-28T11:44:52.112Z,63.16
2023-02-28T11:45:51.976Z,68.64
2023-02-28T11:46:52.702Z,71.06
2023-02-28T11:47:52.044Z,57.04
2023-02-28T11:48:51.973Z,58.49
2023-02-28T11:49:51.960Z,64.61
2023-02-28T11:50:52.129Z,63.00
2023-02-28T11:51:51.977Z,75.09
2023-02-28T11:52:51.934Z,58.01
2023-02-28T11:53:51.974Z,68.64
2023-02-28T11:54:51.919Z,69.61
2023-02-28T11:55:51.971Z,62.84
2023-02-28T11:56:52.117Z,65.74
2023-02-28T11:57:51.892Z,67.84
2023-02-28T11:58:51.840Z,62.68
2023-02-28T11:59:52.208Z,62.68
2023-02-28T12:00:53.688Z,61.39
2023-02-28T12:01:51.974Z,67.35
2023-02-28T12:02:51.917Z,60.42
2023-02-28T12:03:51.878Z,60.91
2023-02-28T12:04:52.501Z,68.64
2023-02-28T12:05:51.974Z,61.07
2023-02-28T12:06:51.853Z,84.59
2023-02-28T12:07:51.761Z,63.81
2023-02-28T12:08:51.868Z,59.62
2023-02-28T12:09:51.776Z,60.10
2023-02-28T12:10:52.008Z,62.20
2023-02-28T12:11:51.729Z,67.68
2023-02-28T12:12:51.708Z,67.84
2023-02-28T12:13:51.709Z,69.13
2023-02-28T12:14:51.753Z,56.88
2023-02-28T12:15:51.672Z,61.55
2023-02-28T12:16:51.710Z,59.78
2023-02-28T12:17:51.683Z,59.62
2023-02-28T12:18:51.737Z,61.23
2023-02-28T12:19:51.688Z,61.39
2023-02-28T12:20:51.750Z,56.56
2023-02-28T12:21:51.686Z,61.23
2023-02-28T12:22:51.687Z,69.61
2023-02-28T12:23:51.634Z,70.09
2023-02-28T12:24:51.682Z,64.94
2023-02-28T12:25:51.590Z,59.94
2023-02-28T12:26:51.615Z,53.82
2023-02-28T12:27:51.619Z,60.59
2023-02-28T12:28:51.596Z,66.39
2023-02-28T12:29:51.545Z,64.61
2023-02-28T12:30:51.533Z,60.75
2023-02-28T12:31:51.644Z,60.42
2023-02-28T12:32:51.848Z,61.23
2023-02-28T12:33:51.592Z,70.25
2023-02-28T12:34:51.506Z,67.35
2023-02-28T12:35:51.539Z,60.26
2023-02-28T12:36:51.500Z,62.68
2023-02-28T12:37:51.564Z,66.06
2023-02-28T12:38:51.563Z,59.94
2023-02-28T12:39:51.641Z,62.36
2023-02-28T12:40:51.478Z,60.59
2023-02-28T12:41:51.689Z,58.49
2023-02-28T12:42:51.753Z,63.49
2023-02-28T12:43:51.442Z,60.91
2023-02-28T12:44:51.679Z,58.17
2023-02-28T12:45:51.583Z,59.14
2023-02-28T12:46:51.531Z,62.52
2023-02-28T12:47:54.052Z,68.48
2023-02-28T12:48:52.366Z,68.96
2023-02-28T12:49:51.379Z,64.13
2023-02-28T12:50:51.361Z,70.25
2023-02-28T12:51:51.332Z,66.23
2023-02-28T12:52:51.402Z,67.84